createdAt,value
2022-09-13T00:01:06.414Z,4.93
2022-09-13T00:03:35.117Z,5.53
2022-09-13T00:06:09.112Z,5.13
2022-09-13T00:08:37.501Z,5.15
2022-09-13T00:11:07.472Z,5.25
2022-09-13T00:13:35.722Z,4.88
2022-09-13T00:16:05.364Z,5.07
2022-09-13T00:18:33.800Z,5.55
2022-09-13T00:21:09.138Z,5.82
2022-09-13T00:23:37.573Z,6.35
2022-09-13T00:26:08.983Z,5.28
2022-09-13T00:28:37.620Z,5.80
2022-09-13T00:31:07.206Z,5.45
2022-09-13T00:33:35.547Z,6.40
2022-09-13T00:36:05.868Z,5.85
2022-09-13T00:38:34.406Z,5.88
2022-09-13T00:41:02.731Z,5.63
2022-09-13T00:43:44.547Z,5.72
2022-09-13T00:46:15.542Z,6.25
2022-09-13T00:48:44.038Z,6.28
2022-09-13T00:51:13.015Z,6.70
2022-09-13T00:53:42.816Z,6.47
2022-09-13T00:56:13.723Z,5.97
2022-09-13T00:58:44.448Z,6.15
2022-09-13T01:01:16.607Z,6.32
2022-09-13T01:03:45.518Z,5.93
2022-09-13T01:06:15.550Z,6.68
2022-09-13T01:08:45.161Z,6.00
2022-09-13T01:11:16.780Z,6.50
2022-09-13T01:13:45.141Z,6.30
2022-09-13T01:16:15.008Z,6.00
2022-09-13T01:18:43.273Z,6.95
2022-09-13T01:21:32.442Z,6.45
2022-09-13T01:24:21.571Z,6.07
2022-09-13T01:27:03.374Z,5.90
2022-09-13T01:29:42.110Z,5.57
2022-09-13T01:32:17.047Z,5.85
2022-09-13T01:34:52.007Z,6.18
2022-09-13T01:37:29.860Z,7.30
2022-09-13T01:40:04.703Z,6.38
2022-09-13T01:42:38.871Z,7.10
2022-09-13T01:45:12.664Z,7.38
2022-09-13T01:47:45.680Z,6.85
2022-09-13T01:50:18.845Z,7.38
2022-09-13T01:52:51.259Z,6.70
2022-09-13T01:55:24.500Z,7.07
2022-09-13T01:57:55.559Z,6.65
2022-09-13T02:00:23.900Z,6.95
2022-09-13T02:02:56.002Z,6.47
2022-09-13T02:05:28.032Z,7.07
2022-09-13T02:07:59.603Z,6.38
2022-09-13T02:10:29.912Z,6.50
2022-09-13T02:12:59.086Z,6.95
2022-09-13T02:15:28.627Z,6.80
2022-09-13T02:18:02.472Z,7.18
2022-09-13T02:20:33.375Z,6.80
2022-09-13T02:23:04.126Z,7.25
2022-09-13T02:25:33.286Z,6.75
2022-09-13T02:28:02.712Z,7.32
2022-09-13T02:30:33.871Z,7.50
2022-09-13T02:33:07.132Z,7.18
2022-09-13T02:35:38.104Z,6.97
2022-09-13T02:38:07.408Z,7.00
2022-09-13T02:40:40.187Z,6.68
2022-09-13T02:43:10.596Z,6.72
2022-09-13T02:45:44.148Z,6.43
2022-09-13T02:48:18.292Z,6.85
2022-09-13T02:50:51.112Z,6.78
2022-09-13T02:53:25.587Z,7.00
2022-09-13T02:55:56.023Z,6.65
2022-09-13T02:58:27.541Z,6.80
2022-09-13T03:00:56.303Z,6.50
2022-09-13T03:03:26.461Z,6.82
2022-09-13T03:05:55.072Z,5.90
2022-09-13T03:08:23.998Z,6.38
2022-09-13T03:10:59.106Z,7.22
2022-09-13T03:13:37.662Z,6.78
2022-09-13T03:16:10.951Z,6.47
2022-09-13T03:18:46.726Z,6.40
2022-09-13T03:21:21.749Z,7.03
2022-09-13T03:23:57.576Z,6.47
2022-09-13T03:26:29.988Z,5.93
2022-09-13T03:29:08.070Z,6.03
2022-09-13T03:31:38.822Z,7.32
2022-09-13T03:34:12.386Z,6.65
2022-09-13T03:36:44.632Z,7.03
2022-09-13T03:39:15.398Z,6.53
2022-09-13T03:41:45.229Z,7.40
2022-09-13T03:44:15.759Z,6.53
2022-09-13T03:46:45.778Z,7.22
2022-09-13T03:49:16.724Z,6.72
2022-09-13T03:51:45.824Z,7.57
2022-09-13T03:54:24.098Z,6.82
2022-09-13T03:57:08.555Z,7.47
2022-09-13T03:59:38.742Z,7.78
2022-09-13T04:02:12.138Z,8.43
2022-09-13T04:04:42.654Z,7.22
2022-09-13T04:07:11.610Z,7.70
2022-09-13T04:09:40.420Z,7.07
2022-09-13T04:12:10.125Z,7.35
2022-09-13T04:14:38.915Z,7.15
2022-09-13T04:17:07.471Z,7.38
2022-09-13T04:19:36.082Z,7.35
2022-09-13T04:22:05.968Z,7.55
2022-09-13T04:24:34.209Z,8.60
2022-09-13T04:27:03.133Z,7.60
2022-09-13T04:29:31.871Z,7.38
2022-09-13T04:32:00.532Z,8.45
2022-09-13T04:34:29.091Z,8.40
2022-09-13T04:36:57.573Z,7.97
2022-09-13T04:39:27.266Z,8.48
2022-09-13T04:41:55.609Z,9.00
2022-09-13T04:44:24.496Z,9.13
2022-09-13T04:46:53.173Z,9.13
2022-09-13T04:49:22.076Z,9.18
2022-09-13T04:51:50.946Z,9.43
2022-09-13T04:54:19.696Z,9.15
2022-09-13T04:56:49.586Z,9.85
2022-09-13T04:59:17.961Z,9.82
2022-09-13T05:01:46.426Z,9.75
2022-09-13T05:04:14.770Z,10.38
2022-09-13T05:06:42.979Z,10.25
2022-09-13T05:09:13.560Z,9.90
2022-09-13T05:11:42.319Z,9.40
2022-09-13T05:14:12.966Z,10.07
2022-09-13T05:16:41.309Z,9.73
2022-09-13T05:19:09.857Z,10.55
2022-09-13T05:21:38.061Z,11.02
2022-09-13T05:24:06.586Z,10.80
2022-09-13T05:26:34.850Z,10.77
2022-09-13T05:29:03.648Z,11.13
2022-09-13T05:31:34.266Z,11.50
2022-09-13T05:34:03.979Z,11.48
2022-09-13T05:36:32.423Z,11.35
2022-09-13T05:39:26.364Z,11.98
2022-09-13T05:41:50.381Z,10.85
2022-09-13T05:44:18.664Z,11.40
2022-09-13T05:46:49.914Z,11.30
2022-09-13T05:49:18.216Z,11.50
2022-09-13T05:51:46.490Z,10.73
2022-09-13T05:54:15.021Z,11.20
2022-09-13T05:56:43.288Z,11.77
2022-09-13T05:59:14.602Z,11.27
2022-09-13T06:01:42.998Z,11.20
2022-09-13T06:04:13.039Z,11.68
2022-09-13T06:06:41.374Z,11.02
2022-09-13T06:09:09.749Z,10.90
2022-09-13T06:11:38.131Z,8.60
2022-09-13T06:14:06.657Z,8.35
2022-09-13T06:16:35.014Z,7.88
2022-09-13T06:19:03.415Z,7.38
2022-09-13T06:21:32.986Z,6.40
2022-09-13T06:24:01.215Z,6.25
2022-09-13T06:26:30.068Z,5.60
2022-09-13T06:28:59.432Z,5.22
2022-09-13T06:31:28.807Z,5.03
2022-09-13T06:33:58.514Z,5.07
2022-09-13T06:36:26.895Z,4.68
2022-09-13T06:38:57.085Z,4.38
2022-09-13T06:41:27.412Z,3.42
2022-09-13T06:43:56.341Z,3.55
2022-09-13T06:46:25.481Z,3.25
2022-09-13T06:48:54.258Z,2.20
2022-09-13T06:51:24.160Z,2.20
2022-09-13T06:53:52.967Z,1.80
2022-09-13T06:56:23.861Z,1.95
2022-09-13T06:58:52.928Z,1.70
2022-09-13T07:01:22.426Z,1.77
2022-09-13T07:03:51.708Z,2.13
2022-09-13T07:06:22.576Z,2.10
2022-09-13T07:08:52.003Z,2.20
2022-09-13T07:11:21.581Z,2.13
2022-09-13T07:13:51.694Z,2.40
2022-09-13T07:16:20.679Z,2.10
2022-09-13T07:18:53.479Z,2.20
2022-09-13T07:21:22.226Z,1.92
2022-09-13T07:23:50.948Z,1.95
2022-09-13T07:26:19.302Z,2.00
2022-09-13T07:28:48.724Z,2.08
2022-09-13T07:31:20.651Z,1.98
2022-09-13T07:33:49.877Z,1.48
2022-09-13T07:36:18.224Z,1.90
2022-09-13T07:38:46.572Z,1.50
2022-09-13T07:41:15.706Z,1.70
2022-09-13T07:43:44.190Z,1.60
2022-09-13T07:46:13.341Z,1.40
2022-09-13T07:48:44.237Z,1.42
2022-09-13T07:51:13.756Z,1.50
2022-09-13T07:53:42.721Z,1.73
2022-09-13T07:56:11.669Z,1.70
2022-09-13T07:58:40.680Z,2.03
2022-09-13T08:01:09.907Z,1.98
2022-09-13T08:03:38.888Z,1.52
2022-09-13T08:06:09.346Z,1.60
2022-09-13T08:08:38.594Z,1.52
2022-09-13T08:11:07.921Z,1.38
2022-09-13T08:13:36.461Z,1.33
2022-09-13T08:16:05.636Z,1.40
2022-09-13T08:18:34.374Z,1.45
2022-09-13T08:21:03.060Z,1.40
2022-09-13T08:23:34.113Z,1.35
2022-09-13T08:26:03.726Z,1.27
2022-09-13T08:28:33.756Z,1.10
2022-09-13T08:31:06.134Z,1.40
2022-09-13T08:33:34.502Z,1.00
2022-09-13T08:36:02.952Z,1.30
2022-09-13T08:38:32.878Z,1.33
2022-09-13T08:41:03.420Z,1.58
2022-09-13T08:43:36.913Z,0.93
2022-09-13T08:46:07.720Z,1.00
2022-09-13T08:48:37.563Z,1.15
2022-09-13T08:51:07.931Z,0.93
2022-09-13T08:53:43.675Z,0.93
2022-09-13T08:56:13.430Z,0.95
2022-09-13T08:58:47.189Z,1.20
2022-09-13T09:01:20.290Z,1.00
2022-09-13T09:03:52.969Z,0.98
2022-09-13T09:06:22.713Z,0.73
2022-09-13T09:08:54.100Z,0.90
2022-09-13T09:11:28.352Z,0.85
2022-09-13T09:13:58.711Z,1.00
2022-09-13T09:16:32.535Z,0.90
2022-09-13T09:19:01.703Z,0.90
2022-09-13T09:21:30.958Z,0.88
2022-09-13T09:24:02.548Z,1.02
2022-09-13T09:26:32.088Z,1.00
2022-09-13T09:29:01.896Z,0.75
2022-09-13T09:31:35.773Z,1.40
2022-09-13T09:34:09.939Z,1.00
2022-09-13T09:36:42.145Z,0.95
2022-09-13T09:39:14.214Z,1.05
2022-09-13T09:41:43.075Z,0.98
2022-09-13T09:44:18.353Z,0.80
2022-09-13T09:46:48.989Z,1.00
2022-09-13T09:49:35.925Z,0.90
2022-09-13T09:52:07.364Z,0.85
2022-09-13T09:54:38.029Z,1.02
2022-09-13T09:57:08.123Z,1.05
2022-09-13T09:59:37.136Z,1.00
2022-09-13T10:02:19.195Z,1.02
2022-09-13T10:04:56.257Z,1.20
2022-09-13T10:07:27.272Z,0.90
2022-09-13T10:10:00.093Z,0.90
2022-09-13T10:12:29.183Z,1.10
2022-09-13T10:15:05.416Z,1.23
2022-09-13T10:17:33.904Z,1.35
2022-09-13T10:20:03.914Z,0.90
2022-09-13T10:22:32.801Z,1.42
2022-09-13T10:25:16.893Z,1.10
2022-09-13T10:27:49.789Z,1.10
2022-09-13T10:30:31.757Z,0.80
2022-09-13T10:33:00.690Z,1.20
2022-09-13T10:35:29.302Z,1.00
2022-09-13T10:37:57.698Z,1.00
2022-09-13T10:40:29.117Z,1.13
2022-09-13T10:42:58.829Z,1.30
2022-09-13T10:45:28.200Z,1.00
2022-09-13T10:47:57.596Z,0.60
2022-09-13T10:50:27.504Z,0.88
2022-09-13T10:52:56.403Z,1.00
2022-09-13T10:55:31.225Z,1.00
2022-09-13T10:58:14.632Z,0.85
2022-09-13T11:00:48.035Z,0.90
2022-09-13T11:03:25.330Z,1.00
2022-09-13T11:05:59.397Z,0.80
2022-09-13T11:08:31.157Z,0.85
2022-09-13T11:11:10.578Z,0.93
2022-09-13T11:13:46.397Z,0.80
2022-09-13T11:16:22.704Z,0.80
2022-09-13T11:19:01.164Z,0.90
2022-09-13T11:21:38.043Z,0.90
2022-09-13T11:24:12.430Z,1.00
2022-09-13T11:26:46.270Z,0.98
2022-09-13T11:29:21.030Z,0.80
2022-09-13T11:31:52.650Z,0.70
2022-09-13T11:34:28.895Z,0.60
2022-09-13T11:37:04.821Z,1.00
2022-09-13T11:39:33.670Z,0.75
2022-09-13T11:42:11.420Z,0.63
2022-09-13T11:44:54.495Z,1.25
2022-09-13T11:47:28.302Z,0.90
2022-09-13T11:50:15.033Z,1.10
2022-09-13T11:52:49.147Z,0.70
2022-09-13T11:55:18.808Z,0.70
2022-09-13T11:57:51.777Z,1.30
2022-09-13T12:00:23.750Z,0.70
2022-09-13T12:02:58.204Z,0.55
2022-09-13T12:05:28.476Z,0.60
2022-09-13T12:07:58.824Z,0.52
2022-09-13T12:10:29.151Z,0.88
2022-09-13T12:13:01.647Z,0.70
2022-09-13T12:15:34.492Z,0.88
2022-09-13T12:18:06.092Z,0.77
2022-09-13T12:20:35.937Z,0.60
2022-09-13T12:23:06.518Z,0.77
2022-09-13T12:25:38.993Z,0.60
2022-09-13T12:28:13.408Z,0.80
2022-09-13T12:30:44.315Z,0.63
2022-09-13T12:33:15.298Z,0.57
2022-09-13T12:35:52.801Z,0.70
2022-09-13T12:38:35.153Z,0.60
2022-09-13T12:41:12.076Z,0.65
2022-09-13T12:43:49.221Z,0.60
2022-09-13T12:46:25.193Z,0.77
2022-09-13T12:49:06.227Z,0.60
2022-09-13T12:51:41.003Z,0.68
2022-09-13T12:54:21.382Z,0.82
2022-09-13T12:56:57.180Z,0.70
2022-09-13T12:59:40.244Z,1.00
2022-09-13T13:02:28.623Z,0.90
2022-09-13T13:05:00.257Z,0.80
2022-09-13T13:07:28.849Z,1.48
2022-09-13T13:09:58.014Z,0.70
2022-09-13T13:12:28.855Z,0.70
2022-09-13T13:14:58.896Z,0.90
2022-09-13T13:17:47.187Z,0.70
2022-09-13T13:20:34.144Z,0.60
2022-09-13T13:23:05.638Z,0.60
2022-09-13T13:25:37.704Z,0.52
2022-09-13T13:28:06.338Z,0.88
2022-09-13T13:30:52.785Z,0.68
2022-09-13T13:33:22.682Z,0.70
2022-09-13T13:35:51.233Z,0.80
2022-09-13T13:38:35.281Z,0.75
2022-09-13T13:41:30.478Z,0.93
2022-09-13T13:43:58.837Z,0.70
2022-09-13T13:46:31.047Z,0.70
2022-09-13T13:49:23.310Z,0.50
2022-09-13T13:52:22.501Z,0.90
2022-09-13T13:55:02.792Z,0.60
2022-09-13T13:57:33.067Z,0.90
2022-09-13T14:00:07.995Z,0.65
2022-09-13T14:02:43.221Z,0.98
2022-09-13T14:05:18.062Z,0.40
2022-09-13T14:08:04.254Z,0.70
2022-09-13T14:13:21.524Z,0.80
2022-09-13T14:15:52.802Z,0.60
2022-09-13T14:18:51.706Z,0.60
2022-09-13T14:21:22.652Z,0.45
2022-09-13T14:23:51.466Z,0.70
2022-09-13T14:26:19.990Z,0.60
2022-09-13T14:28:48.339Z,0.68
2022-09-13T14:31:21.201Z,0.55
2022-09-13T14:33:49.829Z,0.60
2022-09-13T14:36:21.091Z,0.60
2022-09-13T14:38:55.224Z,0.85
2022-09-13T14:41:31.044Z,0.55
2022-09-13T14:44:22.484Z,0.60
2022-09-13T14:46:55.654Z,0.80
2022-09-13T14:49:26.869Z,0.60
2022-09-13T14:51:57.738Z,0.85
2022-09-13T14:54:32.063Z,0.80
2022-09-13T14:57:01.538Z,0.80
2022-09-13T14:59:32.393Z,0.82
2022-09-13T15:02:03.038Z,0.68
2022-09-13T15:04:31.681Z,0.95
2022-09-13T15:07:11.157Z,0.63
2022-09-13T15:09:41.099Z,0.60
2022-09-13T15:12:22.616Z,0.60
2022-09-13T15:14:51.207Z,0.60
2022-09-13T15:17:19.552Z,0.88
2022-09-13T15:19:50.383Z,0.43
2022-09-13T15:22:23.592Z,0.70
2022-09-13T15:24:54.566Z,0.70
2022-09-13T15:27:27.898Z,0.52
2022-09-13T15:29:57.648Z,0.82
2022-09-13T15:32:31.144Z,0.85
2022-09-13T15:35:00.441Z,0.55
2022-09-13T15:37:33.499Z,0.73
2022-09-13T15:40:19.768Z,0.90
2022-09-13T15:42:50.226Z,0.68
2022-09-13T15:45:19.684Z,0.68
2022-09-13T15:47:48.914Z,0.73
2022-09-13T15:50:21.594Z,0.90
2022-09-13T15:52:49.854Z,0.88
2022-09-13T15:55:18.928Z,1.00
2022-09-13T15:57:47.460Z,0.80
2022-09-13T16:00:22.065Z,0.93
2022-09-13T16:02:50.465Z,0.50
2022-09-13T16:05:18.946Z,0.60
2022-09-13T16:07:47.329Z,0.60
2022-09-13T16:10:16.660Z,0.93
2022-09-13T16:12:44.977Z,0.73
2022-09-13T16:15:14.318Z,0.85
2022-09-13T16:17:44.053Z,0.70
2022-09-13T16:20:13.646Z,0.40
2022-09-13T16:22:42.230Z,0.52
2022-09-13T16:25:12.913Z,0.70
2022-09-13T16:27:41.429Z,0.77
2022-09-13T16:30:12.172Z,0.77
2022-09-13T16:32:41.260Z,0.77
2022-09-13T16:35:11.603Z,1.05
2022-09-13T16:37:41.167Z,0.80
2022-09-13T16:40:10.103Z,0.88
2022-09-13T16:42:39.150Z,2.75
2022-09-13T16:45:07.877Z,1.13
2022-09-13T16:47:36.133Z,1.02
2022-09-13T16:50:04.457Z,0.82
2022-09-13T16:52:35.455Z,0.60
2022-09-13T16:55:04.171Z,1.10
2022-09-13T16:57:32.702Z,1.20
2022-09-13T17:00:00.877Z,1.30
2022-09-13T17:02:29.530Z,1.13
2022-09-13T17:04:57.891Z,1.00
2022-09-13T17:07:26.167Z,1.05
2022-09-13T17:09:55.764Z,1.20
2022-09-13T17:12:24.051Z,1.05
2022-09-13T17:14:52.983Z,0.70
2022-09-13T17:17:21.196Z,0.63
2022-09-13T17:19:50.029Z,0.90
2022-09-13T17:22:18.210Z,1.30
2022-09-13T17:24:46.522Z,1.00
2022-09-13T17:27:16.201Z,1.10
2022-09-13T17:29:44.370Z,1.10
2022-09-13T17:32:12.596Z,1.30
2022-09-13T17:34:41.218Z,1.20
2022-09-13T17:37:09.571Z,0.90
2022-09-13T17:39:37.731Z,1.05
2022-09-13T17:42:06.335Z,0.90
2022-09-13T17:44:36.352Z,1.08
2022-09-13T17:47:06.294Z,1.20
2022-09-13T17:49:34.579Z,0.90
2022-09-13T17:52:03.439Z,1.02
2022-09-13T17:54:31.836Z,0.60
2022-09-13T17:57:00.286Z,0.80
2022-09-13T17:59:29.037Z,0.95
2022-09-13T18:02:00.612Z,0.95
2022-09-13T18:04:29.026Z,1.10
2022-09-13T18:06:57.310Z,0.90
2022-09-13T18:09:26.420Z,1.02
2022-09-13T18:11:54.879Z,1.20
2022-09-13T18:14:23.886Z,1.52
2022-09-13T18:16:55.838Z,1.25
2022-09-13T18:19:44.935Z,1.13
2022-09-13T18:22:14.054Z,1.17
2022-09-13T18:24:42.322Z,1.00
2022-09-13T18:27:10.736Z,0.90
2022-09-13T18:29:39.091Z,1.33
2022-09-13T18:32:07.686Z,1.10
2022-09-13T18:34:37.355Z,1.08
2022-09-13T18:37:05.827Z,1.10
2022-09-13T18:39:34.241Z,1.42
2022-09-13T18:42:02.585Z,1.27
2022-09-13T18:44:31.709Z,1.92
2022-09-13T18:47:00.619Z,1.20
2022-09-13T18:49:28.920Z,1.40
2022-09-13T18:51:59.492Z,1.08
2022-09-13T18:54:28.269Z,1.38
2022-09-13T18:56:57.503Z,1.23
2022-09-13T18:59:26.670Z,1.17
2022-09-13T19:01:56.010Z,1.20
2022-09-13T19:04:27.277Z,1.10
2022-09-13T19:06:57.098Z,1.10
2022-09-13T19:09:26.974Z,1.40
2022-09-13T19:11:56.401Z,1.20
2022-09-13T19:14:27.303Z,2.05
2022-09-13T19:16:57.335Z,1.02
2022-09-13T19:19:26.079Z,1.17
2022-09-13T19:21:54.491Z,1.48
2022-09-13T19:24:24.376Z,1.10
2022-09-13T19:26:55.715Z,1.55
2022-09-13T19:29:25.062Z,1.35
2022-09-13T19:31:55.823Z,1.27
2022-09-13T19:34:24.580Z,1.23
2022-09-13T19:36:58.054Z,1.30
2022-09-13T19:39:29.697Z,1.40
2022-09-13T19:42:00.710Z,1.40
2022-09-13T19:44:29.300Z,1.17
2022-09-13T19:47:36.132Z,1.35
2022-09-13T19:49:46.168Z,1.52
2022-09-13T19:52:14.443Z,1.45
2022-09-13T19:54:42.952Z,1.15
2022-09-13T19:57:12.879Z,1.75
2022-09-13T19:59:41.233Z,1.40
2022-09-13T20:02:11.067Z,1.33
2022-09-13T20:04:39.495Z,1.25
2022-09-13T20:07:12.258Z,1.60
2022-09-13T20:09:42.242Z,1.23
2022-09-13T20:12:11.597Z,1.20
2022-09-13T20:14:41.427Z,1.40
2022-09-13T20:17:09.799Z,1.13
2022-09-13T20:19:45.063Z,1.17
2022-09-13T20:22:16.375Z,1.15
2022-09-13T20:24:44.646Z,1.83
2022-09-13T20:27:13.412Z,1.23
2022-09-13T20:29:43.307Z,1.08
2022-09-13T20:32:12.060Z,1.25
2022-09-13T20:34:40.332Z,1.20
2022-09-13T20:37:08.593Z,1.10
2022-09-13T20:39:36.866Z,1.10
2022-09-13T20:42:05.310Z,0.95
2022-09-13T20:44:33.608Z,1.13
2022-09-13T20:47:03.587Z,1.10
2022-09-13T20:49:31.920Z,0.93
2022-09-13T20:52:00.397Z,0.98
2022-09-13T20:54:28.858Z,1.30
2022-09-13T20:56:58.135Z,1.10
2022-09-13T20:59:27.004Z,1.23
2022-09-13T21:01:55.346Z,0.90
2022-09-13T21:04:25.457Z,1.30
2022-09-13T21:07:14.689Z,1.40
2022-09-13T21:09:43.380Z,1.25
2022-09-13T21:12:11.642Z,1.42
2022-09-13T21:14:40.067Z,1.08
2022-09-13T21:17:08.799Z,1.92
2022-09-13T21:19:38.597Z,1.35
2022-09-13T21:22:06.963Z,3.10
2022-09-13T21:24:35.245Z,10.55
2022-09-13T21:27:03.882Z,1.20
2022-09-13T21:29:32.296Z,1.10
2022-09-13T21:32:00.825Z,1.00
2022-09-13T21:34:29.713Z,1.95
2022-09-13T21:36:59.543Z,1.23
2022-09-13T21:39:29.899Z,1.67
2022-09-13T21:41:58.352Z,0.82
2022-09-13T21:44:28.272Z,1.10
2022-09-13T21:46:56.633Z,1.23
2022-09-13T21:49:25.091Z,1.52
2022-09-13T21:51:54.270Z,1.40
2022-09-13T21:54:24.029Z,1.20
2022-09-13T21:56:53.834Z,1.17
2022-09-13T21:59:23.177Z,1.75
2022-09-13T22:01:52.572Z,1.30
2022-09-13T22:04:22.298Z,1.38
2022-09-13T22:06:52.217Z,1.42
2022-09-13T22:09:21.003Z,1.27
2022-09-13T22:11:51.080Z,1.23
2022-09-13T22:14:21.685Z,1.75
2022-09-13T22:16:50.811Z,1.20
2022-09-13T22:19:20.439Z,1.27
2022-09-13T22:21:50.470Z,1.15
2022-09-13T22:24:19.776Z,1.00
2022-09-13T22:26:49.231Z,1.70
2022-09-13T22:29:18.967Z,1.15
2022-09-13T22:31:48.381Z,0.95
2022-09-13T22:34:17.547Z,1.05
2022-09-13T22:36:46.032Z,1.08
2022-09-13T22:39:15.461Z,1.10
2022-09-13T22:41:44.170Z,1.13
2022-09-13T22:44:12.796Z,0.90
2022-09-13T22:46:43.150Z,0.93
2022-09-13T22:49:13.879Z,0.93
2022-09-13T22:51:42.167Z,0.80
2022-09-13T22:54:10.736Z,0.93
2022-09-13T22:56:39.328Z,1.00
2022-09-13T22:59:08.744Z,1.00
2022-09-13T23:01:38.122Z,1.00
2022-09-13T23:04:08.362Z,1.00
2022-09-13T23:06:37.051Z,1.20
2022-09-13T23:09:06.752Z,1.02
2022-09-13T23:11:36.173Z,1.27
2022-09-13T23:14:05.978Z,1.00
2022-09-13T23:16:36.571Z,1.13
2022-09-13T23:19:05.206Z,0.77
2022-09-13T23:21:35.865Z,1.20
2022-09-13T23:24:05.268Z,1.08
2022-09-13T23:26:33.535Z,0.80
2022-09-13T23:29:02.768Z,1.08
2022-09-13T23:31:31.935Z,0.85
2022-09-13T23:34:01.636Z,1.25
2022-09-13T23:36:31.661Z,1.27
2022-09-13T23:39:03.062Z,1.30
2022-09-13T23:41:31.904Z,1.35
2022-09-13T23:44:00.572Z,0.98
2022-09-13T23:46:29.361Z,0.90
2022-09-13T23:48:57.650Z,0.95
2022-09-13T23:51:27.219Z,1.10
2022-09-13T23:53:57.382Z,1.33
2022-09-13T23:56:27.669Z,0.82
2022-09-13T23:58:56.973Z,1.30
